createdAt,value
2022-09-09T00:04:32.479Z,4.57
2022-09-09T00:08:42.972Z,3.33
2022-09-09T00:11:09.296Z,3.45
2022-09-09T00:13:39.421Z,7.85
2022-09-09T00:16:26.164Z,4.43
2022-09-09T00:19:23.794Z,12.82
2022-09-09T00:22:42.345Z,8.73
2022-09-09T00:25:17.375Z,13.07
2022-09-09T00:27:49.072Z,16.40
2022-09-09T00:30:26.009Z,10.90
2022-09-09T00:33:13.909Z,14.73
2022-09-09T00:35:51.439Z,9.43
2022-09-09T00:38:26.136Z,10.93
2022-09-09T00:43:30.603Z,10.90
2022-09-09T00:48:46.831Z,3.00
2022-09-09T00:51:17.860Z,6.43
2022-09-09T00:57:34.504Z,12.40
2022-09-09T01:01:36.233Z,5.15
2022-09-09T01:04:03.783Z,3.95
2022-09-09T01:06:39.761Z,3.70
2022-09-09T01:09:26.568Z,3.20
2022-09-09T01:12:47.900Z,3.20
2022-09-09T01:15:25.181Z,3.00
2022-09-09T01:18:04.928Z,3.03
2022-09-09T01:23:12.084Z,3.00
2022-09-09T01:26:30.911Z,3.97
2022-09-09T01:28:57.205Z,4.10
2022-09-09T01:31:37.071Z,5.70
2022-09-09T01:34:08.434Z,3.15
2022-09-09T01:36:39.319Z,3.87
2022-09-09T01:39:05.773Z,3.20
2022-09-09T01:41:32.121Z,3.05
2022-09-09T01:43:58.244Z,2.80
2022-09-09T01:46:25.590Z,3.40
2022-09-09T01:48:52.197Z,15.75
2022-09-09T01:51:18.447Z,2.62
2022-09-09T01:53:45.718Z,4.20
2022-09-09T01:58:50.849Z,2.58
2022-09-09T02:01:44.932Z,2.40
2022-09-09T02:04:55.206Z,2.62
2022-09-09T02:07:47.014Z,2.78
2022-09-09T02:11:02.600Z,2.75
2022-09-09T02:13:30.199Z,2.55
2022-09-09T02:17:06.946Z,2.65
2022-09-09T02:19:34.606Z,2.58
2022-09-09T02:22:01.338Z,3.83
2022-09-09T02:24:28.704Z,3.10
2022-09-09T02:26:56.332Z,3.08
2022-09-09T02:29:25.653Z,12.82
2022-09-09T02:31:51.880Z,4.00
2022-09-09T02:34:19.313Z,5.82
2022-09-09T02:36:45.972Z,9.65
2022-09-09T02:39:12.135Z,11.52
2022-09-09T02:41:42.120Z,5.43
2022-09-09T02:44:17.271Z,6.20
2022-09-09T02:47:14.467Z,4.12
2022-09-09T02:53:00.841Z,12.10
2022-09-09T02:55:40.347Z,2.80
2022-09-09T02:58:08.261Z,8.15
2022-09-09T03:00:36.317Z,3.70
2022-09-09T03:03:04.090Z,14.23
2022-09-09T03:05:31.232Z,15.50
2022-09-09T03:07:57.391Z,7.55
2022-09-09T03:10:23.566Z,11.18
2022-09-09T03:12:50.571Z,16.70
2022-09-09T03:15:16.918Z,9.10
2022-09-09T03:17:43.049Z,6.85
2022-09-09T03:20:10.055Z,10.25
2022-09-09T03:22:36.428Z,9.70
2022-09-09T03:25:06.173Z,7.62
2022-09-09T03:27:33.001Z,7.55
2022-09-09T03:29:59.219Z,8.98
2022-09-09T03:32:26.888Z,4.10
2022-09-09T03:34:53.097Z,4.28
2022-09-09T03:37:20.261Z,13.80
2022-09-09T03:39:46.452Z,20.10
2022-09-09T03:42:14.508Z,3.80
2022-09-09T03:44:42.247Z,3.47
2022-09-09T03:47:08.755Z,5.35
2022-09-09T03:49:34.985Z,4.03
2022-09-09T03:52:01.391Z,3.65
2022-09-09T03:54:27.593Z,3.72
2022-09-09T03:56:55.010Z,3.60
2022-09-09T03:59:21.729Z,3.50
2022-09-09T04:01:47.983Z,11.88
2022-09-09T04:04:14.207Z,11.80
2022-09-09T04:06:40.437Z,7.28
2022-09-09T04:09:06.643Z,9.30
2022-09-09T04:11:33.087Z,3.30
2022-09-09T04:13:59.320Z,18.67
2022-09-09T04:16:25.568Z,3.70
2022-09-09T04:18:53.718Z,8.85
2022-09-09T04:21:19.925Z,3.60
2022-09-09T04:23:46.360Z,3.40
2022-09-09T04:26:13.000Z,3.50
2022-09-09T04:28:39.196Z,3.40
2022-09-09T04:31:10.377Z,3.42
2022-09-09T04:33:40.339Z,3.30
2022-09-09T04:36:07.236Z,3.50
2022-09-09T04:38:33.502Z,3.47
2022-09-09T04:41:00.191Z,4.35
2022-09-09T04:43:27.445Z,9.18
2022-09-09T04:45:54.740Z,13.27
2022-09-09T04:48:21.566Z,7.03
2022-09-09T04:50:58.698Z,4.25
2022-09-09T04:53:25.782Z,6.37
2022-09-09T04:55:53.967Z,8.32
2022-09-09T04:58:22.696Z,11.98
2022-09-09T05:00:49.022Z,3.42
2022-09-09T05:03:15.292Z,12.73
2022-09-09T05:05:42.022Z,6.62
2022-09-09T05:08:08.875Z,3.22
2022-09-09T05:10:36.706Z,3.08
2022-09-09T05:13:02.966Z,3.22
2022-09-09T05:15:29.189Z,4.10
2022-09-09T05:18:02.602Z,4.18
2022-09-09T05:20:29.398Z,4.07
2022-09-09T05:22:57.251Z,13.75
2022-09-09T05:25:26.259Z,3.60
2022-09-09T05:27:54.838Z,3.95
2022-09-09T05:30:22.517Z,7.78
2022-09-09T05:32:49.368Z,5.05
2022-09-09T05:35:15.809Z,3.33
2022-09-09T05:37:42.028Z,3.37
2022-09-09T05:40:09.766Z,3.40
2022-09-09T05:42:36.013Z,3.20
2022-09-09T05:45:02.832Z,3.28
2022-09-09T05:47:29.196Z,3.53
2022-09-09T05:49:55.823Z,3.42
2022-09-09T05:52:22.995Z,4.15
2022-09-09T05:54:49.245Z,5.32
2022-09-09T05:57:15.631Z,3.30
2022-09-09T05:59:41.784Z,2.90
2022-09-09T06:02:09.364Z,3.62
2022-09-09T06:04:35.693Z,3.30
2022-09-09T06:07:01.907Z,26.85
2022-09-09T06:09:28.390Z,3.17
2022-09-09T06:11:54.636Z,3.67
2022-09-09T06:14:22.198Z,3.40
2022-09-09T06:16:48.457Z,3.00
2022-09-09T06:19:14.713Z,3.10
2022-09-09T06:21:41.466Z,3.10
2022-09-09T06:24:08.023Z,3.10
2022-09-09T06:26:36.298Z,2.87
2022-09-09T06:29:04.156Z,3.00
2022-09-09T06:31:31.727Z,3.05
2022-09-09T06:33:59.126Z,3.65
2022-09-09T06:36:27.799Z,4.78
2022-09-09T06:38:53.992Z,6.90
2022-09-09T06:41:21.064Z,9.27
2022-09-09T06:43:47.478Z,12.85
2022-09-09T06:46:15.125Z,8.90
2022-09-09T06:48:47.645Z,7.75
2022-09-09T06:51:18.330Z,6.75
2022-09-09T06:53:45.522Z,6.57
2022-09-09T06:56:25.133Z,6.10
2022-09-09T06:58:52.678Z,7.50
2022-09-09T07:01:23.635Z,11.65
2022-09-09T07:03:52.544Z,8.50
2022-09-09T07:06:20.440Z,7.87
2022-09-09T07:08:56.484Z,7.37
2022-09-09T07:11:24.235Z,6.47
2022-09-09T07:13:50.529Z,7.85
2022-09-09T07:16:18.250Z,6.95
2022-09-09T07:18:45.335Z,11.35
2022-09-09T07:21:12.373Z,12.63
2022-09-09T07:23:39.165Z,11.68
2022-09-09T07:26:15.816Z,8.35
2022-09-09T07:28:42.115Z,12.57
2022-09-09T07:31:14.122Z,19.60
2022-09-09T07:33:41.361Z,29.67
2022-09-09T07:36:09.605Z,26.50
2022-09-09T07:38:56.125Z,22.50
2022-09-09T07:41:25.110Z,19.42
2022-09-09T07:43:51.671Z,12.52
2022-09-09T07:46:19.743Z,10.63
2022-09-09T07:48:46.849Z,14.48
2022-09-09T07:51:17.308Z,15.35
2022-09-09T07:53:43.930Z,17.27
2022-09-09T07:56:13.114Z,22.15
2022-09-09T07:58:39.996Z,27.10
2022-09-09T08:01:20.158Z,29.37
2022-09-09T08:03:47.169Z,23.73
2022-09-09T08:06:14.215Z,27.48
2022-09-09T08:08:42.744Z,26.48
2022-09-09T08:11:14.965Z,30.70
2022-09-09T08:13:42.626Z,32.65
2022-09-09T08:16:16.602Z,28.10
2022-09-09T08:18:43.358Z,21.95
2022-09-09T08:21:32.275Z,17.87
2022-09-09T08:23:59.551Z,18.52
2022-09-09T08:26:28.268Z,16.55
2022-09-09T08:28:56.292Z,16.62
2022-09-09T08:33:53.249Z,17.62
2022-09-09T08:36:24.581Z,18.65
2022-09-09T08:38:54.873Z,19.50
2022-09-09T08:42:43.639Z,21.73
2022-09-09T08:45:20.512Z,20.50
2022-09-09T08:48:22.165Z,8.45
2022-09-09T08:50:49.436Z,8.82
2022-09-09T08:53:22.507Z,9.52
2022-09-09T08:55:56.732Z,9.60
2022-09-09T08:58:31.036Z,8.30
2022-09-09T09:02:20.808Z,12.20
2022-09-09T09:05:32.135Z,9.80
2022-09-09T09:10:43.581Z,6.30
2022-09-09T09:13:49.000Z,6.43
2022-09-09T09:17:20.209Z,6.80
2022-09-09T09:19:47.613Z,7.47
2022-09-09T09:22:33.229Z,9.20
2022-09-09T09:26:00.307Z,12.45
2022-09-09T09:28:29.984Z,12.75
2022-09-09T09:31:11.469Z,11.77
2022-09-09T09:33:53.278Z,10.32
2022-09-09T09:36:21.261Z,9.65
2022-09-09T09:41:54.867Z,13.13
2022-09-09T09:44:34.124Z,11.20
2022-09-09T09:47:14.780Z,9.77
2022-09-09T09:49:56.531Z,11.35
2022-09-09T09:52:24.353Z,9.30
2022-09-09T09:54:50.632Z,6.43
2022-09-09T09:57:17.188Z,6.68
2022-09-09T09:59:43.516Z,5.37
2022-09-09T10:02:28.075Z,5.85
2022-09-09T10:05:15.855Z,6.50
2022-09-09T10:07:44.252Z,7.00
2022-09-09T10:10:21.415Z,6.57
2022-09-09T10:13:02.732Z,4.90
2022-09-09T10:16:23.567Z,4.47
2022-09-09T10:19:07.252Z,4.70
2022-09-09T10:22:17.333Z,4.80
2022-09-09T10:26:39.828Z,5.05
2022-09-09T10:30:49.503Z,6.45
2022-09-09T10:36:50.000Z,5.12
2022-09-09T10:39:43.087Z,7.32
2022-09-09T10:42:17.177Z,6.62
2022-09-09T10:45:20.609Z,11.32
2022-09-09T10:49:26.294Z,9.85
2022-09-09T10:53:49.751Z,7.75
2022-09-09T10:56:20.322Z,7.75
2022-09-09T10:59:00.082Z,13.95
2022-09-09T11:01:49.466Z,15.55
2022-09-09T11:04:43.371Z,17.40
2022-09-09T11:07:15.189Z,16.12
2022-09-09T11:09:45.661Z,20.52
2022-09-09T11:12:15.939Z,21.87
2022-09-09T11:15:00.511Z,22.35
2022-09-09T11:18:01.740Z,21.95
2022-09-09T11:20:29.840Z,22.60
2022-09-09T11:23:21.884Z,19.62
2022-09-09T11:25:59.144Z,24.75
2022-09-09T11:31:54.353Z,23.50
2022-09-09T11:35:31.499Z,19.87
2022-09-09T11:38:27.772Z,15.32
2022-09-09T11:41:07.004Z,16.45
2022-09-09T11:43:55.183Z,22.33
2022-09-09T11:46:33.882Z,18.73
2022-09-09T11:49:01.880Z,24.58
2022-09-09T11:51:29.983Z,20.42
2022-09-09T11:55:33.799Z,21.70
2022-09-09T11:58:04.786Z,21.42
2022-09-09T12:00:37.621Z,21.25
2022-09-09T12:03:05.442Z,24.00
2022-09-09T12:05:43.503Z,27.37
2022-09-09T12:08:11.507Z,26.70
2022-09-09T12:10:39.613Z,26.60
2022-09-09T12:13:25.350Z,25.02
2022-09-09T12:15:58.884Z,22.87
2022-09-09T12:18:39.808Z,24.27
2022-09-09T12:22:36.662Z,17.77
2022-09-09T12:25:24.492Z,15.38
2022-09-09T12:28:15.578Z,17.70
2022-09-09T12:31:05.244Z,13.55
2022-09-09T12:33:35.704Z,16.87
2022-09-09T12:36:03.979Z,13.32
2022-09-09T12:38:34.645Z,17.15
2022-09-09T12:41:01.642Z,21.15
2022-09-09T12:43:28.401Z,16.85
2022-09-09T12:46:07.942Z,18.87
2022-09-09T12:48:44.948Z,13.23
2022-09-09T12:51:31.046Z,10.35
2022-09-09T12:53:57.543Z,9.98
2022-09-09T12:56:29.131Z,9.00
2022-09-09T12:58:56.628Z,8.80
2022-09-09T13:01:27.809Z,8.88
2022-09-09T13:03:54.916Z,11.73
2022-09-09T13:06:29.571Z,9.15
2022-09-09T13:09:00.156Z,8.38
2022-09-09T13:11:48.488Z,15.15
2022-09-09T13:14:30.745Z,10.15
2022-09-09T13:17:01.379Z,11.52
2022-09-09T13:19:36.788Z,12.02
2022-09-09T13:22:48.213Z,13.00
2022-09-09T13:25:29.071Z,13.15
2022-09-09T13:28:03.166Z,12.15
2022-09-09T13:30:38.750Z,10.68
2022-09-09T13:33:38.434Z,14.90
2022-09-09T13:36:09.919Z,14.30
2022-09-09T13:38:54.988Z,12.23
2022-09-09T13:41:55.078Z,10.85
2022-09-09T13:44:27.787Z,13.00
2022-09-09T13:50:27.735Z,13.80
2022-09-09T13:53:01.007Z,11.05
2022-09-09T13:55:28.605Z,9.48
2022-09-09T13:58:01.654Z,7.47
2022-09-09T14:00:33.145Z,7.68
2022-09-09T14:03:02.313Z,7.28
2022-09-09T14:05:29.472Z,9.13
2022-09-09T14:07:55.773Z,8.77
2022-09-09T14:10:22.711Z,8.90
2022-09-09T14:12:48.878Z,9.90
2022-09-09T14:15:15.616Z,8.77
2022-09-09T14:17:42.172Z,7.68
2022-09-09T14:20:09.536Z,7.47
2022-09-09T14:22:37.164Z,6.15
2022-09-09T14:25:04.663Z,9.50
2022-09-09T14:27:33.817Z,5.70
2022-09-09T14:30:01.239Z,5.68
2022-09-09T14:32:27.777Z,5.60
2022-09-09T14:34:55.432Z,6.05
2022-09-09T14:37:21.773Z,7.15
2022-09-09T14:39:50.814Z,6.90
2022-09-09T14:42:17.595Z,5.90
2022-09-09T14:44:44.231Z,7.15
2022-09-09T14:47:10.440Z,7.05
2022-09-09T14:49:37.451Z,7.47
2022-09-09T14:52:04.662Z,7.70
2022-09-09T14:54:32.989Z,8.25
2022-09-09T14:56:59.464Z,7.32
2022-09-09T14:59:25.755Z,7.53
2022-09-09T15:01:52.064Z,6.80
2022-09-09T15:04:18.677Z,7.00
2022-09-09T15:06:48.472Z,6.50
2022-09-09T15:09:15.475Z,7.05
2022-09-09T15:11:41.676Z,5.90
2022-09-09T15:14:08.790Z,6.15
2022-09-09T15:16:35.401Z,5.95
2022-09-09T15:19:02.375Z,5.97
2022-09-09T15:21:30.607Z,5.65
2022-09-09T15:23:57.102Z,5.00
2022-09-09T15:26:23.595Z,5.47
2022-09-09T15:28:50.178Z,5.55
2022-09-09T15:31:30.611Z,5.12
2022-09-09T15:34:02.283Z,5.10
2022-09-09T15:36:35.900Z,4.47
2022-09-09T15:39:03.119Z,3.83
2022-09-09T15:41:29.763Z,4.05
2022-09-09T15:44:00.665Z,4.00
2022-09-09T15:46:37.206Z,5.45
2022-09-09T15:49:05.908Z,3.92
2022-09-09T15:51:48.434Z,4.25
2022-09-09T15:54:20.723Z,3.97
2022-09-09T15:56:49.087Z,4.20
2022-09-09T15:59:15.329Z,4.75
2022-09-09T16:01:42.481Z,4.40
2022-09-09T16:04:08.979Z,4.20
2022-09-09T16:06:35.254Z,3.87
2022-09-09T16:09:03.931Z,3.72
2022-09-09T16:11:32.951Z,3.40
2022-09-09T16:13:59.550Z,3.17
2022-09-09T16:16:27.943Z,3.00
2022-09-09T16:18:55.791Z,3.00
2022-09-09T16:21:31.050Z,3.17
2022-09-09T16:23:59.731Z,3.30
2022-09-09T16:26:27.334Z,3.50
2022-09-09T16:28:55.142Z,3.58
2022-09-09T16:31:22.694Z,3.50
2022-09-09T16:33:50.816Z,3.50
2022-09-09T16:36:31.704Z,3.50
2022-09-09T16:38:59.703Z,3.30
2022-09-09T16:41:29.240Z,3.20
2022-09-09T16:43:56.998Z,3.28
2022-09-09T16:46:24.502Z,3.50
2022-09-09T16:48:51.896Z,3.65
2022-09-09T16:51:26.109Z,4.32
2022-09-09T16:53:53.179Z,4.55
2022-09-09T16:56:25.638Z,5.07
2022-09-09T16:58:56.066Z,5.22
2022-09-09T17:01:23.555Z,4.32
2022-09-09T17:03:57.536Z,5.03
2022-09-09T17:06:28.125Z,4.62
2022-09-09T17:08:58.776Z,5.15
2022-09-09T17:11:25.989Z,5.18
2022-09-09T17:13:52.898Z,3.90
2022-09-09T17:16:21.737Z,3.78
2022-09-09T17:18:49.010Z,3.60
2022-09-09T17:21:17.318Z,3.58
2022-09-09T17:23:43.483Z,3.40
2022-09-09T17:26:12.622Z,3.40
2022-09-09T17:28:39.258Z,3.20
2022-09-09T17:31:07.171Z,3.15
2022-09-09T17:33:35.275Z,3.20
2022-09-09T17:36:03.164Z,3.53
2022-09-09T17:38:29.485Z,4.20
2022-09-09T17:41:25.001Z,3.80
2022-09-09T17:43:51.543Z,3.75
2022-09-09T17:46:22.780Z,45.22
2022-09-09T17:48:51.615Z,4.90
2022-09-09T17:51:25.307Z,52.22
2022-09-09T17:53:52.505Z,4.65
2022-09-09T17:56:23.118Z,14.75
2022-09-09T17:58:50.099Z,3.80
2022-09-09T18:01:21.023Z,3.45
2022-09-09T18:03:48.523Z,3.42
2022-09-09T18:06:19.642Z,3.62
2022-09-09T18:08:53.948Z,3.40
2022-09-09T18:11:21.813Z,3.37
2022-09-09T18:13:56.862Z,3.67
2022-09-09T18:16:24.530Z,4.47
2022-09-09T18:18:52.169Z,5.72
2022-09-09T18:21:19.073Z,6.43
2022-09-09T18:23:51.591Z,6.85
2022-09-09T18:26:20.197Z,7.75
2022-09-09T18:28:56.361Z,7.55
2022-09-09T18:31:23.796Z,6.32
2022-09-09T18:33:50.643Z,56.42
2022-09-09T18:36:25.253Z,45.33
2022-09-09T18:38:51.684Z,16.50
2022-09-09T18:41:27.764Z,36.08
2022-09-09T18:43:56.910Z,3.87
2022-09-09T18:46:24.115Z,3.92
2022-09-09T18:48:51.145Z,4.18
2022-09-09T18:51:19.824Z,5.05
2022-09-09T18:53:50.415Z,5.93
2022-09-09T18:56:18.252Z,6.72
2022-09-09T18:58:44.858Z,7.10
2022-09-09T19:01:13.213Z,7.45
2022-09-09T19:03:40.202Z,8.90
2022-09-09T19:06:12.354Z,10.80
2022-09-09T19:08:40.688Z,10.93
2022-09-09T19:11:08.786Z,31.33
2022-09-09T19:13:35.434Z,10.55
2022-09-09T19:16:09.878Z,10.02
2022-09-09T19:18:36.521Z,10.27
2022-09-09T19:21:21.756Z,10.45
2022-09-09T19:23:51.579Z,10.32
2022-09-09T19:26:18.533Z,10.68
2022-09-09T19:28:49.652Z,10.40
2022-09-09T19:31:17.880Z,10.77
2022-09-09T19:33:47.822Z,10.70
2022-09-09T19:36:17.172Z,9.82
2022-09-09T19:38:45.332Z,8.93
2022-09-09T19:41:17.793Z,7.15
2022-09-09T19:43:46.367Z,5.90
2022-09-09T19:46:13.918Z,5.47
2022-09-09T19:48:41.053Z,4.60
2022-09-09T19:51:09.872Z,3.80
2022-09-09T19:53:37.718Z,3.25
2022-09-09T19:56:05.030Z,3.58
2022-09-09T19:58:34.060Z,3.67
2022-09-09T20:01:11.832Z,4.05
2022-09-09T20:03:38.900Z,3.95
2022-09-09T20:06:07.564Z,4.00
2022-09-09T20:08:35.901Z,4.03
2022-09-09T20:11:02.437Z,4.10
2022-09-09T20:13:29.876Z,4.00
2022-09-09T20:16:03.785Z,4.00
2022-09-09T20:18:33.872Z,4.03
2022-09-09T20:21:03.096Z,3.78
2022-09-09T20:23:29.788Z,3.60
2022-09-09T20:25:59.755Z,3.60
2022-09-09T20:28:26.389Z,3.80
2022-09-09T20:30:52.727Z,3.72
2022-09-09T20:33:20.089Z,3.35
2022-09-09T20:35:46.502Z,3.20
2022-09-09T20:38:12.855Z,3.12
2022-09-09T20:40:39.478Z,3.40
2022-09-09T20:43:06.009Z,3.45
2022-09-09T20:45:35.144Z,3.53
2022-09-09T20:48:02.965Z,3.75
2022-09-09T20:50:30.351Z,3.35
2022-09-09T20:52:56.756Z,3.30
2022-09-09T20:55:27.589Z,3.60
2022-09-09T20:57:53.914Z,3.50
2022-09-09T21:00:20.291Z,3.60
2022-09-09T21:02:46.583Z,3.50
2022-09-09T21:05:13.112Z,3.40
2022-09-09T21:07:40.386Z,3.30
2022-09-09T21:10:08.031Z,3.25
2022-09-09T21:12:34.236Z,3.20
2022-09-09T21:15:00.476Z,3.10
2022-09-09T21:17:26.808Z,3.10
2022-09-09T21:19:56.415Z,3.20
2022-09-09T21:22:23.620Z,3.10
2022-09-09T21:24:50.352Z,3.40
2022-09-09T21:27:16.925Z,3.47
2022-09-09T21:29:47.059Z,3.40
2022-09-09T21:32:13.287Z,3.12
2022-09-09T21:34:41.872Z,3.17
2022-09-09T21:37:09.063Z,3.60
2022-09-09T21:39:35.426Z,3.35
2022-09-09T21:42:01.719Z,3.47
2022-09-09T21:44:28.125Z,3.37
2022-09-09T21:46:54.437Z,3.25
2022-09-09T21:49:21.930Z,3.30
2022-09-09T21:51:48.328Z,3.20
2022-09-09T21:54:14.947Z,2.92
2022-09-09T21:56:41.420Z,3.08
2022-09-09T21:59:08.033Z,3.00
2022-09-09T22:01:34.466Z,2.78
2022-09-09T22:04:02.038Z,2.92
2022-09-09T22:06:29.427Z,2.97
2022-09-09T22:08:56.728Z,3.10
2022-09-09T22:11:23.782Z,3.20
2022-09-09T22:13:50.183Z,3.22
2022-09-09T22:16:17.711Z,3.37
2022-09-09T22:18:44.412Z,3.30
2022-09-09T22:21:15.764Z,3.17
2022-09-09T22:23:41.979Z,3.17
2022-09-09T22:26:08.925Z,3.20
2022-09-09T22:28:35.823Z,3.28
2022-09-09T22:31:02.205Z,3.25
2022-09-09T22:33:28.618Z,3.20
2022-09-09T22:35:54.870Z,3.30
2022-09-09T22:38:22.637Z,3.47
2022-09-09T22:40:49.160Z,3.60
2022-09-09T22:43:18.429Z,3.75
2022-09-09T22:45:45.735Z,3.60
2022-09-09T22:48:12.351Z,3.50
2022-09-09T22:50:43.190Z,3.50
2022-09-09T22:53:12.818Z,3.50
2022-09-09T22:55:38.996Z,3.70
2022-09-09T22:58:05.243Z,3.70
2022-09-09T23:00:31.469Z,4.00
2022-09-09T23:02:58.649Z,4.00
2022-09-09T23:05:26.797Z,4.28
2022-09-09T23:07:55.177Z,4.22
2022-09-09T23:10:21.505Z,4.10
2022-09-09T23:12:48.442Z,4.50
2022-09-09T23:15:14.629Z,4.30
2022-09-09T23:17:41.002Z,4.30
2022-09-09T23:20:09.887Z,4.50
2022-09-09T23:22:36.759Z,4.35
2022-09-09T23:25:05.315Z,4.50
2022-09-09T23:27:32.358Z,4.68
2022-09-09T23:29:59.395Z,5.00
2022-09-09T23:32:25.819Z,5.40
2022-09-09T23:34:52.448Z,5.70
2022-09-09T23:37:19.623Z,5.80
2022-09-09T23:39:45.909Z,6.20
2022-09-09T23:42:14.340Z,5.72
2022-09-09T23:44:41.378Z,6.07
2022-09-09T23:47:08.730Z,5.55
2022-09-09T23:49:35.476Z,5.70
2022-09-09T23:52:04.689Z,5.32
2022-09-09T23:54:31.403Z,5.20
2022-09-09T23:56:58.670Z,4.87
2022-09-09T23:59:25.112Z,4.40
